Canberra, Capital Territory

2:53 PM AEST on July 24, 2016 (GMT +1000)
Madison Apartments | | Change Station

Elev 1916 ft 35.34 °S, 149.15 °E | Updated 6 seconds ago

Mostly Cloudy
Mostly Cloudy
46.2 °F
Feels Like 45 °F
N
3.1
Wind Variable Wind from West
Gusts 3.8 mph

Today
High -- | Low -- °F
--% Chance of Precip.
Yesterday
High -- | Low -- °F
Precip. -- in
Pressure 29.83 in
Visibility 6.2 miles
Clouds Few 3500 ft
Mostly Cloudy 6500 ft
Windchill 45 °F
Dew Point 30 °F
Humidity 53%
Rainfall 0.00 in
Snow Depth Not available.
7:04 AM 5:15 PM
Waning Gibbous, 79% visible
METAR YSCB 240430Z 32010KT 9999 FEW035 BKN065 08/M01 Q1010 NOSIG
Pressure 29.83 in
Visibility 6.2 miles
Clouds Few 3500 ft
Mostly Cloudy 6500 ft
Windchill 45 °F
Dew Point 30 °F
Humidity 53%
Rainfall 0.00 in
Snow Depth Not available.
7:04 AM 5:15 PM
Waning Gibbous, 79% visible
METAR YSCB 240430Z 32010KT 9999 FEW035 BKN065 08/M01 Q1010 NOSIG

10-Day Weather Forecast

Almanac

Astronomy

Jul. 24, 2016 Rise Set
Actual Time
Civil Twilight
Nautical Twilight
Astronomical Twilight
Moon
Length of Visible Light
Length of Day
Tomorrow will be .
, % of the Moon is Illuminated

Today's Extremes

Country Highs Country Lows

Community

WunderPhotos

Upload Photos

1,927,030 photos uploaded!

WunderBlog® & News

Nearby

Air Quality

  Air Quality AQ Index Pollutant
Not available.

Snow Depth

Station Depth Elevation

Earthquake Activity

City Distance Mag. Time & Date
Minimum magnitude displayed is 2.5.

Coastal Water Temperatures

Place Temperature

Stations

Nearby Weather Stations

Station Location Temp. Windchill Dew Point Humidity Wind Precip. Elev Updated Type